Time;durP1;ratioP1;P1;durP2;ratioP2;P2;SDS_P1;SDS_P2;PMS_P1;PMS_P2;Temp;Humidity;BMP_temperature;BMP_pressure;BME280_temperature;BME280_humidity;BME280_pressure;Samples;Min_cycle;Max_cycle;Signal;HPM_P1;HPM_P2
2023/08/20 00:01:58;;;;;;;10.38;8.52;;;21.50;99.90;;;;;;5026889;28;20579;-81
2023/08/20 00:04:26;;;;;;;10.48;8.55;;;21.40;99.90;;;;;;5020663;28;20022;-81
2023/08/20 00:06:52;;;;;;;10.75;8.85;;;21.40;99.90;;;;;;5015559;28;20382;-82
2023/08/20 00:09:18;;;;;;;13.52;10.48;;;21.40;99.90;;;;;;5012657;28;20026;-81
2023/08/20 00:11:44;;;;;;;10.98;8.88;;;21.40;99.90;;;;;;5018982;28;20030;-82
2023/08/20 00:14:16;;;;;;;13.00;10.52;;;21.40;99.90;;;;;;5018023;28;20013;-81
2023/08/20 00:16:43;;;;;;;10.82;9.07;;;21.40;99.90;;;;;;5021544;28;20076;-82
2023/08/20 00:19:10;;;;;;;11.25;8.80;;;21.30;99.90;;;;;;5028649;28;20536;-83
2023/08/20 00:21:42;;;;;;;9.05;7.47;;;21.30;99.90;;;;;;5026706;28;20445;-81
2023/08/20 00:24:08;;;;;;;9.38;8.32;;;21.30;99.90;;;;;;5028800;28;20029;-80
2023/08/20 00:26:34;;;;;;;10.13;8.25;;;21.30;99.90;;;;;;5022688;28;20116;-79
2023/08/20 00:29:01;;;;;;;11.60;8.77;;;21.30;99.90;;;;;;5018325;28;20402;-80
2023/08/20 00:31:26;;;;;;;9.45;7.97;;;21.30;99.90;;;;;;5025032;28;20029;-81
2023/08/20 00:33:52;;;;;;;13.77;9.20;;;21.30;99.90;;;;;;5029730;28;20029;-81
2023/08/20 00:36:19;;;;;;;9.93;8.23;;;21.30;99.90;;;;;;5033762;28;20437;-80
2023/08/20 00:38:45;;;;;;;9.35;8.20;;;21.20;99.90;;;;;;5036016;28;20033;-81
2023/08/20 00:41:11;;;;;;;8.85;7.95;;;21.30;99.90;;;;;;5015624;28;20227;-81
2023/08/20 00:43:36;;;;;;;11.43;8.30;;;21.20;99.90;;;;;;5035482;28;20034;-81
2023/08/20 00:46:03;;;;;;;11.48;8.38;;;21.20;99.90;;;;;;5025342;28;20053;-81
2023/08/20 00:48:29;;;;;;;11.98;8.57;;;21.20;99.90;;;;;;5017829;28;20022;-81
2023/08/20 00:50:55;;;;;;;8.85;7.95;;;21.20;99.90;;;;;;5016223;28;20034;-81
2023/08/20 00:53:21;;;;;;;11.80;8.18;;;21.20;99.90;;;;;;5026328;28;20065;-81
2023/08/20 00:55:47;;;;;;;8.98;8.07;;;21.20;99.90;;;;;;5028676;28;20033;-81
2023/08/20 00:58:14;;;;;;;9.93;7.90;;;21.20;99.90;;;;;;5018669;28;20439;-81
2023/08/20 01:00:40;;;;;;;11.07;8.25;;;21.20;99.90;;;;;;5016198;28;20045;-82
2023/08/20 01:03:06;;;;;;;8.68;7.78;;;21.20;99.90;;;;;;5041006;28;20495;-81
2023/08/20 01:05:36;;;;;;;10.45;7.93;;;21.20;99.90;;;;;;5018562;28;20478;-81
2023/08/20 01:08:33;;;;;;;9.57;7.50;;;21.10;99.90;;;;;;5019483;28;20044;-81
2023/08/20 01:11:06;;;;;;;12.75;8.27;;;21.10;99.90;;;;;;5035628;28;20105;-81
2023/08/20 01:13:33;;;;;;;8.63;7.50;;;21.10;99.90;;;;;;5026603;28;20064;-81
2023/08/20 01:15:58;;;;;;;9.10;8.30;;;21.10;99.90;;;;;;5034871;28;20037;-81
2023/08/20 01:18:25;;;;;;;13.35;8.63;;;21.10;99.90;;;;;;5031703;28;20034;-81
2023/08/20 01:20:58;;;;;;;9.27;7.45;;;21.10;99.90;;;;;;5021055;28;20022;-81
2023/08/20 01:23:48;;;;;;;11.30;8.27;;;21.10;99.90;;;;;;5032468;28;20025;-81
2023/08/20 01:26:23;;;;;;;8.88;8.00;;;21.00;99.90;;;;;;5022140;28;20097;-80
2023/08/20 01:28:49;;;;;;;10.55;8.55;;;21.00;99.90;;;;;;5019463;28;20048;-81
2023/08/20 01:31:18;;;;;;;9.40;8.27;;;21.00;99.90;;;;;;5023985;28;20067;-78
2023/08/20 01:33:44;;;;;;;8.73;7.47;;;21.00;99.90;;;;;;5027075;28;20028;-80
2023/08/20 01:36:10;;;;;;;12.10;8.18;;;20.90;99.90;;;;;;5035443;28;20034;-81
2023/08/20 01:38:37;;;;;;;13.02;8.25;;;21.00;99.90;;;;;;5021639;28;20034;-78
2023/08/20 01:41:04;;;;;;;12.30;8.30;;;20.90;99.90;;;;;;5029738;28;20033;-80
2023/08/20 01:43:29;;;;;;;8.73;7.93;;;20.90;99.90;;;;;;5039991;28;20060;-80
2023/08/20 01:45:55;;;;;;;8.73;7.72;;;20.90;99.90;;;;;;5032348;28;20029;-80
2023/08/20 01:48:21;;;;;;;10.90;8.27;;;20.90;99.90;;;;;;5032022;28;20033;-81
2023/08/20 01:50:46;;;;;;;9.02;7.60;;;21.00;99.90;;;;;;5021913;28;20038;-82
2023/08/20 01:53:12;;;;;;;14.13;9.23;;;21.00;99.90;;;;;;5026594;28;20057;-81
2023/08/20 01:55:56;;;;;;;10.98;8.10;;;21.00;99.90;;;;;;5023274;28;20057;-81
2023/08/20 01:58:23;;;;;;;10.68;8.02;;;20.90;99.90;;;;;;5024359;28;20048;-80
2023/08/20 02:00:49;;;;;;;12.00;8.05;;;20.90;99.90;;;;;;5029869;28;20041;-81
2023/08/20 02:03:15;;;;;;;11.18;8.95;;;20.90;99.90;;;;;;5023709;28;20030;-83
2023/08/20 02:05:41;;;;;;;8.55;7.68;;;21.00;99.90;;;;;;5026157;28;20171;-82
2023/08/20 02:08:08;;;;;;;9.23;7.20;;;20.90;99.90;;;;;;5021975;28;20034;-82
2023/08/20 02:10:36;;;;;;;8.85;7.75;;;20.90;99.90;;;;;;5029261;28;20034;-80
2023/08/20 02:13:05;;;;;;;8.50;7.60;;;21.00;99.90;;;;;;5021107;28;20236;-82
2023/08/20 02:15:30;;;;;;;8.45;7.55;;;21.00;99.90;;;;;;5022080;28;20041;-80
2023/08/20 02:17:56;;;;;;;8.63;7.70;;;20.90;99.90;;;;;;5020916;28;20025;-81
2023/08/20 02:20:22;;;;;;;10.95;8.55;;;20.90;99.90;;;;;;5008568;28;20030;-83
2023/08/20 02:22:48;;;;;;;8.05;7.25;;;20.90;99.90;;;;;;5019749;28;20049;-82
2023/08/20 02:25:15;;;;;;;9.02;8.00;;;20.90;99.90;;;;;;5018674;28;20034;-82
2023/08/20 02:27:40;;;;;;;10.80;8.13;;;20.80;99.90;;;;;;5022880;28;20105;-82
2023/08/20 02:30:07;;;;;;;10.32;7.60;;;20.80;99.90;;;;;;5015010;28;20678;-80
2023/08/20 02:32:35;;;;;;;8.68;7.78;;;20.80;99.90;;;;;;5017356;28;20037;-82
2023/08/20 02:35:05;;;;;;;9.23;8.32;;;20.80;99.90;;;;;;5015775;28;20101;-81
2023/08/20 02:37:32;;;;;;;10.40;8.38;;;20.70;99.90;;;;;;5018231;28;20030;-80
2023/08/20 02:39:58;;;;;;;13.18;9.02;;;20.80;99.90;;;;;;5018016;28;20918;-82
2023/08/20 02:42:24;;;;;;;11.65;8.48;;;20.70;99.90;;;;;;5012600;28;20031;-79
2023/08/20 02:44:50;;;;;;;13.52;8.98;;;20.70;99.90;;;;;;5007088;28;20037;-82
2023/08/20 02:47:15;;;;;;;10.35;9.05;;;20.70;99.90;;;;;;5012765;28;20034;-81
2023/08/20 02:49:41;;;;;;;9.57;8.20;;;20.60;99.90;;;;;;5028294;28;20530;-80
2023/08/20 02:52:07;;;;;;;10.30;8.27;;;20.60;99.90;;;;;;5002804;28;20038;-81
2023/08/20 02:54:33;;;;;;;9.35;8.45;;;20.60;99.90;;;;;;5032734;28;20136;-82
2023/08/20 02:56:59;;;;;;;11.20;8.05;;;20.60;99.90;;;;;;5021058;28;20442;-81
2023/08/20 02:59:25;;;;;;;12.05;8.40;;;20.60;99.90;;;;;;5023497;28;20045;-82
2023/08/20 03:01:51;;;;;;;13.13;8.88;;;20.50;99.90;;;;;;5019806;28;20030;-82
2023/08/20 03:04:16;;;;;;;10.00;8.55;;;20.50;99.90;;;;;;5032413;28;20033;-82
2023/08/20 03:06:43;;;;;;;9.40;8.20;;;20.50;99.90;;;;;;5002070;28;20033;-82
2023/08/20 03:09:09;;;;;;;11.40;8.75;;;20.40;99.90;;;;;;5025653;28;20109;-81
2023/08/20 03:11:35;;;;;;;10.57;8.82;;;20.50;99.90;;;;;;5040753;28;20145;-81
2023/08/20 03:14:01;;;;;;;8.70;7.85;;;20.40;99.90;;;;;;5028248;28;20097;-79
2023/08/20 03:16:26;;;;;;;9.27;8.38;;;20.40;99.90;;;;;;5026741;28;20443;-80
2023/08/20 03:18:52;;;;;;;10.05;7.82;;;20.40;99.90;;;;;;5032916;28;20056;-79
2023/08/20 03:21:18;;;;;;;11.68;8.30;;;20.40;99.90;;;;;;5022732;28;20033;-80
2023/08/20 03:23:44;;;;;;;10.25;8.07;;;20.40;99.90;;;;;;5025042;28;20029;-81
2023/08/20 03:26:10;;;;;;;9.30;7.65;;;20.30;99.90;;;;;;5020467;28;20044;-81
2023/08/20 03:28:35;;;;;;;8.52;7.15;;;20.30;99.90;;;;;;5019844;28;20026;-80
2023/08/20 03:31:01;;;;;;;9.48;7.55;;;20.30;99.90;;;;;;5018271;28;20028;-80
2023/08/20 03:33:29;;;;;;;8.13;7.32;;;20.30;99.90;;;;;;5016519;28;20025;-80
2023/08/20 03:35:56;;;;;;;8.73;7.85;;;20.20;99.90;;;;;;5030422;28;20033;-82
2023/08/20 03:38:22;;;;;;;9.63;7.65;;;20.20;99.90;;;;;;5030507;28;20021;-84
2023/08/20 03:40:49;;;;;;;9.68;7.72;;;20.20;99.90;;;;;;5028297;28;20406;-80
2023/08/20 03:43:15;;;;;;;8.10;7.32;;;20.10;99.90;;;;;;5020121;28;20178;-80
2023/08/20 03:45:41;;;;;;;10.32;7.35;;;20.10;99.90;;;;;;5024546;28;20129;-81
2023/08/20 03:48:07;;;;;;;15.13;8.20;;;20.10;99.90;;;;;;5028513;28;20628;-82
2023/08/20 03:50:33;;;;;;;9.13;8.18;;;20.10;99.90;;;;;;5041716;28;20022;-82
2023/08/20 03:52:59;;;;;;;10.65;9.05;;;20.00;99.90;;;;;;5045787;28;20053;-83
2023/08/20 03:55:26;;;;;;;10.40;9.10;;;20.00;99.90;;;;;;5040326;28;20030;-80
2023/08/20 03:57:52;;;;;;;9.60;8.65;;;20.00;99.90;;;;;;5026092;28;20036;-82
2023/08/20 04:00:18;;;;;;;9.93;8.52;;;19.90;99.90;;;;;;5030184;28;20029;-82
2023/08/20 04:02:44;;;;;;;11.25;8.40;;;19.90;99.90;;;;;;5022512;28;20054;-81
2023/08/20 04:05:10;;;;;;;9.45;8.55;;;19.90;99.90;;;;;;5022768;28;20030;-82
2023/08/20 04:07:37;;;;;;;9.05;8.10;;;19.90;99.90;;;;;;5016274;28;20029;-81
2023/08/20 04:10:03;;;;;;;9.10;8.18;;;19.90;99.90;;;;;;5023041;28;20060;-81
2023/08/20 04:12:28;;;;;;;10.20;7.63;;;19.90;99.90;;;;;;5020732;28;20029;-82
2023/08/20 04:14:56;;;;;;;8.10;7.07;;;19.80;99.90;;;;;;5017627;28;20133;-80
2023/08/20 04:17:22;;;;;;;8.02;7.18;;;19.80;99.90;;;;;;5018686;28;20057;-80
2023/08/20 04:19:48;;;;;;;8.05;7.22;;;19.80;99.90;;;;;;5028288;28;20572;-81
2023/08/20 04:22:13;;;;;;;9.73;7.40;;;19.80;99.90;;;;;;5023497;28;20117;-82
2023/08/20 04:24:39;;;;;;;8.75;7.57;;;19.80;99.90;;;;;;5020418;28;20035;-81
2023/08/20 04:27:05;;;;;;;9.25;7.45;;;19.70;99.90;;;;;;5017978;28;20038;-81
2023/08/20 04:29:33;;;;;;;10.65;7.43;;;19.70;99.90;;;;;;5015887;28;20044;-82
2023/08/20 04:31:58;;;;;;;8.57;7.38;;;19.70;99.90;;;;;;5018943;28;20051;-82
2023/08/20 04:34:24;;;;;;;12.70;7.82;;;19.70;99.90;;;;;;4998888;28;20037;-81
2023/08/20 04:36:52;;;;;;;9.07;7.70;;;19.70;99.90;;;;;;4996557;28;20053;-81
2023/08/20 04:39:19;;;;;;;8.73;7.85;;;19.70;99.90;;;;;;5016121;28;20037;-82
2023/08/20 04:41:49;;;;;;;9.75;7.50;;;19.60;99.90;;;;;;5036947;28;20163;-82
2023/08/20 04:44:17;;;;;;;9.27;8.32;;;19.60;99.90;;;;;;5010722;28;20064;-82
2023/08/20 04:46:43;;;;;;;9.15;8.05;;;19.60;99.90;;;;;;5014526;28;20038;-82
2023/08/20 04:49:09;;;;;;;9.98;8.32;;;19.60;99.90;;;;;;5011009;28;20059;-82
2023/08/20 04:51:37;;;;;;;10.15;7.90;;;19.60;99.90;;;;;;5030146;28;20092;-83
2023/08/20 04:54:03;;;;;;;9.05;8.20;;;19.60;99.90;;;;;;5014045;28;20029;-81
2023/08/20 04:56:29;;;;;;;8.27;7.47;;;19.60;99.90;;;;;;5028926;28;20113;-80
2023/08/20 04:58:55;;;;;;;10.65;8.43;;;19.70;99.90;;;;;;5014052;28;20503;-80
2023/08/20 05:01:44;;;;;;;10.80;8.40;;;19.70;99.90;;;;;;5019342;28;20041;-81
2023/08/20 05:04:11;;;;;;;10.15;9.02;;;19.70;99.90;;;;;;5014445;28;20022;-80
2023/08/20 05:06:37;;;;;;;8.95;7.85;;;19.80;99.90;;;;;;5032048;28;20095;-81
2023/08/20 05:09:03;;;;;;;11.88;8.43;;;19.80;99.90;;;;;;5019357;28;20132;-82
2023/08/20 05:11:31;;;;;;;11.70;9.70;;;19.80;99.90;;;;;;5021348;28;20112;-81
2023/08/20 05:13:57;;;;;;;12.68;9.63;;;19.80;99.90;;;;;;5028668;28;20032;-80
2023/08/20 05:16:23;;;;;;;12.70;8.07;;;19.90;99.90;;;;;;5036710;28;20037;-81
2023/08/20 05:18:50;;;;;;;12.32;8.45;;;19.90;99.90;;;;;;5031066;28;20036;-80
2023/08/20 05:21:15;;;;;;;10.98;9.45;;;20.00;99.90;;;;;;5036493;28;20030;-80
2023/08/20 05:23:41;;;;;;;11.10;9.90;;;20.00;99.90;;;;;;5035352;28;20030;-80
2023/08/20 05:26:07;;;;;;;11.18;10.00;;;20.00;99.90;;;;;;5020287;28;20021;-81
2023/08/20 05:28:34;;;;;;;12.50;9.88;;;20.10;99.90;;;;;;5013444;28;20040;-80
2023/08/20 05:31:00;;;;;;;10.68;9.60;;;20.10;99.90;;;;;;5020755;28;20072;-79
2023/08/20 05:33:26;;;;;;;12.45;9.85;;;20.20;99.90;;;;;;5037233;28;20068;-81
2023/08/20 05:35:54;;;;;;;10.27;8.35;;;20.20;99.90;;;;;;5034952;28;20402;-80
2023/08/20 05:38:20;;;;;;;9.38;8.30;;;20.30;99.90;;;;;;5027343;28;20029;-81
2023/08/20 05:40:48;;;;;;;8.43;7.60;;;20.40;99.90;;;;;;5021395;28;20026;-79
2023/08/20 05:43:14;;;;;;;8.05;7.32;;;20.50;99.90;;;;;;5024124;28;20092;-81
2023/08/20 05:45:40;;;;;;;8.85;7.95;;;20.70;99.90;;;;;;5015669;28;20033;-80
2023/08/20 05:48:07;;;;;;;8.30;7.47;;;20.90;99.90;;;;;;5001107;28;20490;-79
2023/08/20 05:50:33;;;;;;;9.02;7.38;;;21.10;99.90;;;;;;5014345;28;20050;-80
2023/08/20 05:52:59;;;;;;;9.85;7.70;;;21.30;99.90;;;;;;5041443;28;20029;-79
2023/08/20 05:55:26;;;;;;;9.93;7.00;;;21.50;99.90;;;;;;5020589;28;20638;-80
2023/08/20 05:57:54;;;;;;;8.15;7.35;;;21.70;99.90;;;;;;5014767;28;20029;-80
2023/08/20 06:00:20;;;;;;;10.15;8.10;;;21.90;99.90;;;;;;5022187;28;20050;-80
2023/08/20 06:02:46;;;;;;;11.73;9.10;;;22.00;99.90;;;;;;5004853;28;20121;-80
2023/08/20 06:05:12;;;;;;;9.05;8.15;;;22.20;99.90;;;;;;5028705;28;20517;-81
2023/08/20 06:07:39;;;;;;;9.85;7.15;;;22.30;99.90;;;;;;5027836;28;20041;-81
2023/08/20 06:10:06;;;;;;;9.43;7.70;;;22.50;99.90;;;;;;5017177;28;20116;-79
2023/08/20 06:12:35;;;;;;;8.77;7.07;;;22.80;99.90;;;;;;5030067;28;20050;-79
2023/08/20 06:15:04;;;;;;;8.75;7.25;;;23.00;99.90;;;;;;5017598;28;20034;-80
2023/08/20 06:17:30;;;;;;;7.72;6.95;;;23.30;99.90;;;;;;5012720;28;20395;-82
2023/08/20 06:19:55;;;;;;;9.07;8.15;;;23.50;99.90;;;;;;5009010;28;20029;-81
2023/08/20 06:22:21;;;;;;;11.52;8.32;;;23.70;99.90;;;;;;5020704;28;20037;-81
2023/08/20 06:24:47;;;;;;;10.88;8.15;;;23.90;99.90;;;;;;5033209;28;20030;-79
2023/08/20 06:27:13;;;;;;;11.73;8.48;;;24.10;99.90;;;;;;5025422;28;20483;-81
2023/08/20 06:29:39;;;;;;;8.15;7.35;;;24.20;99.90;;;;;;5023015;28;20120;-80
2023/08/20 06:32:05;;;;;;;12.75;8.63;;;24.40;99.90;;;;;;5022428;28;20026;-78
2023/08/20 06:34:30;;;;;;;10.77;8.65;;;24.40;99.90;;;;;;5024174;28;20061;-80
2023/08/20 06:36:56;;;;;;;10.25;7.47;;;24.60;99.90;;;;;;5035040;28;20048;-79
2023/08/20 06:39:22;;;;;;;8.50;7.40;;;24.70;99.90;;;;;;5019414;28;20044;-80
2023/08/20 06:41:47;;;;;;;8.68;7.28;;;24.80;99.90;;;;;;5026773;28;20156;-79
2023/08/20 06:44:19;;;;;;;9.75;7.25;;;25.00;99.90;;;;;;5042968;28;20033;-80
2023/08/20 06:46:45;;;;;;;8.75;7.18;;;25.20;99.90;;;;;;5015017;28;20037;-81
2023/08/20 06:49:13;;;;;;;11.63;8.00;;;25.40;99.90;;;;;;5021706;28;20084;-80
2023/08/20 06:51:39;;;;;;;9.55;7.43;;;25.60;99.90;;;;;;5009498;28;20040;-79
2023/08/20 06:54:08;;;;;;;10.45;9.40;;;25.80;99.90;;;;;;5015591;28;20112;-79
2023/08/20 06:56:34;;;;;;;8.68;7.65;;;25.90;99.90;;;;;;5018515;28;20502;-80
2023/08/20 06:59:02;;;;;;;9.30;6.80;;;26.00;99.90;;;;;;5024311;28;20030;-79
2023/08/20 07:01:29;;;;;;;10.30;7.32;;;26.20;99.90;;;;;;5014706;28;20048;-79
2023/08/20 07:03:54;;;;;;;8.23;6.50;;;26.30;99.90;;;;;;5025880;28;20018;-79
2023/08/20 07:06:20;;;;;;;8.50;7.50;;;26.40;99.90;;;;;;5017721;28;20398;-79
2023/08/20 07:08:46;;;;;;;9.23;7.70;;;26.60;99.90;;;;;;5029823;28;20112;-80
2023/08/20 07:11:12;;;;;;;19.85;14.55;;;26.80;99.90;;;;;;5019199;28;20556;-80
2023/08/20 07:13:37;;;;;;;10.07;7.38;;;26.80;99.90;;;;;;5018031;28;21044;-79
2023/08/20 07:16:03;;;;;;;9.75;8.75;;;26.80;99.90;;;;;;5018355;28;20030;-78
2023/08/20 07:18:29;;;;;;;8.73;7.80;;;26.90;99.90;;;;;;5013362;28;20172;-79
2023/08/20 07:20:56;;;;;;;9.32;7.20;;;26.90;99.90;;;;;;5019161;28;20154;-79
2023/08/20 07:23:22;;;;;;;16.02;8.15;;;27.00;99.90;;;;;;5018074;28;20026;-80
2023/08/20 07:25:51;;;;;;;8.82;7.50;;;27.00;99.90;;;;;;5029699;28;20029;-79
2023/08/20 07:28:26;;;;;;;11.40;7.57;;;26.90;99.90;;;;;;5031755;28;20033;-78
2023/08/20 07:30:52;;;;;;;12.40;8.32;;;26.90;99.90;;;;;;5017567;28;20387;-80
2023/08/20 07:33:18;;;;;;;11.20;7.72;;;27.00;99.90;;;;;;5015565;28;20677;-80
2023/08/20 07:35:44;;;;;;;8.10;7.30;;;27.00;99.90;;;;;;5017626;28;20034;-80
2023/08/20 07:38:09;;;;;;;10.35;7.45;;;27.00;99.90;;;;;;5025497;28;20121;-79
2023/08/20 07:40:36;;;;;;;10.90;8.05;;;27.00;99.90;;;;;;5018292;28;20042;-79
2023/08/20 07:43:02;;;;;;;13.48;7.80;;;26.90;99.90;;;;;;5028328;28;20018;-79
2023/08/20 07:45:28;;;;;;;10.52;7.32;;;26.90;99.90;;;;;;5022067;28;20052;-81
2023/08/20 07:47:54;;;;;;;9.60;8.07;;;27.00;99.90;;;;;;5014905;28;20065;-79
2023/08/20 07:50:19;;;;;;;8.35;7.45;;;27.00;99.90;;;;;;5011879;28;20021;-80
2023/08/20 07:52:45;;;;;;;8.85;7.70;;;27.00;99.90;;;;;;5017814;28;20053;-78
2023/08/20 07:55:30;;;;;;;10.85;7.60;;;27.00;99.90;;;;;;5015054;28;20072;-79
2023/08/20 07:57:58;;;;;;;8.13;7.32;;;27.00;99.90;;;;;;5016046;28;20064;-79
2023/08/20 08:00:24;;;;;;;11.88;7.90;;;27.00;99.90;;;;;;5010038;28;21847;-80
2023/08/20 08:02:50;;;;;;;9.13;7.93;;;27.20;99.90;;;;;;5018235;28;20034;-78
2023/08/20 08:05:16;;;;;;;11.10;8.15;;;27.30;99.90;;;;;;5013989;28;20056;-78
2023/08/20 08:07:41;;;;;;;10.98;7.70;;;27.30;99.90;;;;;;5017283;28;20038;-79
2023/08/20 08:10:08;;;;;;;8.45;7.50;;;27.40;99.90;;;;;;5020982;28;20026;-78
2023/08/20 08:12:34;;;;;;;8.32;7.45;;;27.50;99.90;;;;;;5012410;28;20055;-80
2023/08/20 08:15:00;;;;;;;9.48;7.03;;;27.40;99.90;;;;;;5010292;28;20066;-78
2023/08/20 08:17:25;;;;;;;9.60;8.07;;;27.40;99.90;;;;;;5002588;28;20034;-78
2023/08/20 08:19:53;;;;;;;9.45;7.75;;;27.40;99.90;;;;;;5010935;28;20026;-78
2023/08/20 08:22:19;;;;;;;8.65;7.75;;;27.50;99.90;;;;;;5013553;28;20037;-78
2023/08/20 08:24:45;;;;;;;9.57;7.63;;;27.50;99.90;;;;;;5014482;28;20045;-78
2023/08/20 08:27:11;;;;;;;10.25;7.82;;;27.60;99.90;;;;;;5030305;28;20026;-78
2023/08/20 08:29:37;;;;;;;10.77;7.80;;;27.70;99.90;;;;;;5024314;28;20097;-77
2023/08/20 08:32:06;;;;;;;10.60;7.93;;;27.80;99.90;;;;;;4998163;28;20030;-78
2023/08/20 08:34:32;;;;;;;8.55;6.80;;;27.90;99.90;;;;;;5026965;28;20143;-78
2023/08/20 08:36:58;;;;;;;9.57;7.80;;;27.90;99.90;;;;;;5022836;28;20113;-78
2023/08/20 08:39:23;;;;;;;10.23;7.03;;;27.90;99.90;;;;;;5021914;28;20026;-78
2023/08/20 08:41:54;;;;;;;8.82;7.93;;;27.90;99.90;;;;;;5029357;28;20061;-79
2023/08/20 08:44:21;;;;;;;9.63;6.60;;;27.90;99.90;;;;;;5038100;28;20021;-79
2023/08/20 08:46:50;;;;;;;7.25;6.35;;;28.00;99.90;;;;;;5028424;28;20098;-80
2023/08/20 08:49:17;;;;;;;7.70;6.93;;;28.10;99.90;;;;;;5033932;28;20033;-79
2023/08/20 08:51:45;;;;;;;7.13;6.38;;;28.10;99.90;;;;;;5017956;28;20026;-78
2023/08/20 08:54:34;;;;;;;8.05;6.97;;;28.10;99.90;;;;;;5021159;28;20483;-79
2023/08/20 08:57:01;;;;;;;9.02;6.47;;;28.10;99.90;;;;;;5027624;28;20061;-78
2023/08/20 08:59:27;;;;;;;7.57;6.80;;;28.10;99.90;;;;;;5010562;28;20058;-78
2023/08/20 09:01:53;;;;;;;7.32;6.68;;;28.10;99.90;;;;;;5042738;28;20094;-78
2023/08/20 09:04:19;;;;;;;9.05;6.53;;;28.00;99.90;;;;;;5032663;28;20025;-79
2023/08/20 09:06:49;;;;;;;9.68;6.35;;;28.00;99.90;;;;;;5027221;28;20415;-77
2023/08/20 09:09:18;;;;;;;6.50;5.90;;;28.00;99.90;;;;;;5035475;28;20032;-78
2023/08/20 09:11:47;;;;;;;7.97;6.35;;;28.00;99.90;;;;;;5022807;28;20086;-78
2023/08/20 09:14:23;;;;;;;7.70;6.47;;;28.00;99.90;;;;;;5012250;28;20053;-78
2023/08/20 09:16:58;;;;;;;7.30;6.60;;;28.10;99.90;;;;;;5030081;28;20030;-78
2023/08/20 09:19:24;;;;;;;7.65;6.65;;;28.10;99.90;;;;;;5040313;28;20034;-80
2023/08/20 09:21:52;;;;;;;7.32;6.45;;;28.00;99.90;;;;;;5035204;28;20033;-77
2023/08/20 09:24:27;;;;;;;7.65;6.78;;;28.00;99.90;;;;;;5029048;28;20038;-79
2023/08/20 09:26:59;;;;;;;7.57;6.88;;;28.00;99.90;;;;;;5038901;28;20029;-79
2023/08/20 09:29:25;;;;;;;7.43;6.60;;;28.00;99.90;;;;;;5028368;28;20053;-79
2023/08/20 09:32:01;;;;;;;6.88;6.28;;;28.10;99.90;;;;;;5030681;28;20037;-78
2023/08/20 09:34:37;;;;;;;9.02;7.22;;;28.20;99.90;;;;;;5027306;28;20042;-79
2023/08/20 09:37:27;;;;;;;8.73;6.68;;;28.20;99.90;;;;;;5032551;28;20040;-78
2023/08/20 09:39:53;;;;;;;7.93;7.13;;;28.20;99.90;;;;;;5039379;28;20033;-79
2023/08/20 09:42:19;;;;;;;8.65;7.10;;;28.20;99.90;;;;;;5030661;28;20097;-78
2023/08/20 09:44:46;;;;;;;6.80;6.07;;;28.30;99.90;;;;;;5035057;28;20101;-80
2023/08/20 09:47:13;;;;;;;7.50;6.80;;;28.30;99.90;;;;;;5032194;28;20025;-78
2023/08/20 09:49:41;;;;;;;10.20;7.07;;;28.30;99.90;;;;;;5027158;28;20522;-78
2023/08/20 09:52:09;;;;;;;7.97;6.22;;;28.30;99.90;;;;;;5023654;28;20033;-78
2023/08/20 09:54:40;;;;;;;11.25;6.47;;;28.30;99.90;;;;;;5029523;28;20085;-79
2023/08/20 09:57:11;;;;;;;8.02;6.47;;;28.30;99.90;;;;;;5036694;28;20036;-78
2023/08/20 09:59:41;;;;;;;7.90;6.40;;;28.30;99.90;;;;;;5023297;28;20499;-78
2023/08/20 10:02:11;;;;;;;7.00;6.30;;;28.30;99.90;;;;;;5024055;28;20040;-79
2023/08/20 10:04:37;;;;;;;7.38;6.55;;;28.30;99.90;;;;;;5024807;28;20180;-79
2023/08/20 10:07:04;;;;;;;8.57;6.47;;;28.40;99.90;;;;;;5024694;28;20065;-78
2023/08/20 10:09:29;;;;;;;8.50;6.82;;;28.50;99.90;;;;;;5029573;28;20141;-78
2023/08/20 10:11:55;;;;;;;8.02;6.28;;;28.50;99.90;;;;;;5023148;28;20478;-78
2023/08/20 10:14:22;;;;;;;7.70;6.68;;;28.60;99.90;;;;;;5020440;28;20478;-79
2023/08/20 10:16:47;;;;;;;8.75;6.50;;;28.70;99.90;;;;;;5022210;28;20031;-79
2023/08/20 10:19:17;;;;;;;6.95;5.93;;;28.70;99.90;;;;;;5028307;28;20117;-79
2023/08/20 10:21:46;;;;;;;9.45;6.38;;;28.80;98.50;;;;;;5037116;28;20220;-78
2023/08/20 10:24:18;;;;;;;6.55;5.78;;;28.80;98.80;;;;;;5022909;28;20034;-79
2023/08/20 10:26:46;;;;;;;9.30;8.27;;;28.80;99.90;;;;;;5020489;28;20045;-78
2023/08/20 10:29:39;;;;;;;6.80;6.13;;;28.90;99.90;;;;;;5027942;28;20066;-78
2023/08/20 10:32:10;;;;;;;6.90;5.55;;;29.00;99.90;;;;;;5018804;28;20386;-78
2023/08/20 10:34:38;;;;;;;6.90;5.93;;;29.00;99.90;;;;;;5021158;28;20467;-79
2023/08/20 10:37:13;;;;;;;24.55;20.33;;;29.10;99.90;;;;;;5031211;28;20052;-77
2023/08/20 10:39:39;;;;;;;11.18;5.78;;;29.10;99.90;;;;;;5020428;28;20034;-78
2023/08/20 10:42:26;;;;;;;7.10;4.88;;;29.20;98.80;;;;;;5010472;28;20033;-79
2023/08/20 10:45:05;;;;;;;8.38;5.47;;;29.20;95.60;;;;;;5013972;28;20030;-79
2023/08/20 10:47:48;;;;;;;8.35;5.65;;;29.20;95.40;;;;;;5005503;28;20036;-80
2023/08/20 10:50:18;;;;;;;7.00;5.68;;;29.40;95.70;;;;;;5009036;28;20033;-78
2023/08/20 10:52:49;;;;;;;7.95;5.10;;;29.40;95.30;;;;;;5007607;28;20034;-79
2023/08/20 10:55:15;;;;;;;6.57;5.05;;;29.50;93.70;;;;;;5006893;28;20034;-82
2023/08/20 10:57:41;;;;;;;8.07;4.68;;;29.60;95.90;;;;;;5009712;28;20388;-80
2023/08/20 11:00:11;;;;;;;8.05;5.15;;;29.70;94.10;;;;;;5024896;28;20080;-81
2023/08/20 11:02:40;;;;;;;8.27;4.18;;;29.70;96.40;;;;;;5014268;28;20038;-81
2023/08/20 11:05:17;;;;;;;10.00;6.75;;;29.70;92.80;;;;;;5005331;28;20057;-79
2023/08/20 11:07:46;;;;;;;10.50;6.90;;;29.70;95.30;;;;;;5007176;28;20026;-80
2023/08/20 11:10:16;;;;;;;9.48;4.85;;;29.90;98.20;;;;;;5008144;28;20114;-79
2023/08/20 11:12:46;;;;;;;6.50;4.50;;;29.90;92.30;;;;;;5018009;28;20038;-79
2023/08/20 11:15:12;;;;;;;5.03;4.47;;;29.90;91.90;;;;;;5014520;28;20034;-80
2023/08/20 11:17:47;;;;;;;5.38;4.43;;;29.80;92.30;;;;;;5008386;28;20055;-82
2023/08/20 11:20:16;;;;;;;7.43;4.72;;;29.90;91.90;;;;;;5004156;28;20114;-81
2023/08/20 11:22:42;;;;;;;7.72;5.00;;;30.00;93.00;;;;;;5018568;28;20030;-80
2023/08/20 11:25:12;;;;;;;8.35;4.75;;;30.10;93.80;;;;;;5010427;28;20076;-80
2023/08/20 11:27:44;;;;;;;9.00;5.75;;;30.10;91.70;;;;;;5008915;28;20034;-76
2023/08/20 11:30:13;;;;;;;6.38;4.35;;;30.10;95.50;;;;;;5020093;28;20053;-79
2023/08/20 11:32:39;;;;;;;16.17;12.23;;;30.00;97.30;;;;;;5005586;28;20073;-80
2023/08/20 11:35:07;;;;;;;8.23;6.97;;;30.00;96.60;;;;;;5003820;28;20033;-81
2023/08/20 11:37:33;;;;;;;5.25;4.75;;;30.00;97.10;;;;;;5006328;28;20127;-78
2023/08/20 11:39:59;;;;;;;9.40;4.93;;;29.90;97.70;;;;;;5009414;28;20024;-79
2023/08/20 11:42:25;;;;;;;7.45;4.90;;;29.90;96.80;;;;;;5010007;28;20421;-79
2023/08/20 11:44:55;;;;;;;6.78;4.88;;;29.80;97.20;;;;;;5023867;28;20061;-81
2023/08/20 11:47:20;;;;;;;8.25;4.93;;;29.70;97.30;;;;;;5007818;28;20542;-80
2023/08/20 11:49:46;;;;;;;5.38;4.55;;;29.80;98.80;;;;;;5007337;28;20034;-79
2023/08/20 11:52:13;;;;;;;5.57;4.57;;;29.90;95.80;;;;;;5012752;28;20022;-83
2023/08/20 11:54:39;;;;;;;11.55;5.05;;;29.90;95.10;;;;;;5006351;28;20093;-81
2023/08/20 11:57:06;;;;;;;5.38;4.65;;;30.00;93.90;;;;;;5004287;28;20033;-80
2023/08/20 11:59:33;;;;;;;6.53;5.15;;;30.10;96.10;;;;;;5013400;28;20034;-79
2023/08/20 12:02:00;;;;;;;6.07;4.95;;;30.10;94.30;;;;;;5003380;28;20034;-81
2023/08/20 12:04:29;;;;;;;5.13;4.65;;;30.10;96.50;;;;;;5005149;28;20065;-79
2023/08/20 12:07:14;;;;;;;6.95;5.30;;;30.10;96.60;;;;;;5011527;28;20038;-80
2023/08/20 12:09:40;;;;;;;14.10;11.00;;;30.10;96.90;;;;;;5004824;28;20034;-81
2023/08/20 12:12:07;;;;;;;6.30;4.95;;;30.20;97.30;;;;;;5011993;28;20032;-81
2023/08/20 12:14:33;;;;;;;5.22;4.72;;;30.30;94.10;;;;;;5005601;28;20491;-79
2023/08/20 12:16:59;;;;;;;8.70;6.30;;;30.40;96.30;;;;;;5010535;28;20038;-81
2023/08/20 12:19:25;;;;;;;8.20;4.95;;;30.60;97.40;;;;;;5009118;28;20037;-79
2023/08/20 12:21:51;;;;;;;6.65;4.55;;;30.90;94.50;;;;;;5011195;28;20403;-80
2023/08/20 12:24:19;;;;;;;6.47;5.03;;;31.00;95.30;;;;;;5007160;28;20089;-83
2023/08/20 12:26:57;;;;;;;5.72;5.13;;;31.00;96.50;;;;;;5013019;28;20034;-83
2023/08/20 12:29:23;;;;;;;8.13;4.70;;;31.10;96.60;;;;;;5005396;28;20033;-83
2023/08/20 12:31:49;;;;;;;8.13;4.60;;;31.10;95.00;;;;;;5011259;28;20108;-82
2023/08/20 12:34:14;;;;;;;6.78;4.50;;;31.10;94.30;;;;;;5010758;28;20032;-82
2023/08/20 12:36:40;;;;;;;6.18;4.80;;;31.20;94.80;;;;;;5010491;28;20080;-82
2023/08/20 12:39:06;;;;;;;7.80;6.55;;;31.20;92.90;;;;;;5011772;28;20494;-79
2023/08/20 12:41:32;;;;;;;7.00;4.53;;;31.30;95.40;;;;;;5027749;28;20029;-81
2023/08/20 12:43:59;;;;;;;9.07;4.90;;;31.40;94.90;;;;;;5015365;28;20073;-82
2023/08/20 12:46:25;;;;;;;4.53;4.07;;;31.40;92.70;;;;;;5008634;28;20030;-85